createdAt,value
2023-01-22T00:00:05.975Z,17.92
2023-01-22T00:02:36.031Z,13.50
2023-01-22T00:05:03.133Z,13.98
2023-01-22T00:07:29.736Z,13.10
2023-01-22T00:09:56.750Z,15.70
2023-01-22T00:12:23.372Z,12.18
2023-01-22T00:14:50.035Z,11.40
2023-01-22T00:17:16.628Z,14.55
2023-01-22T00:19:43.583Z,13.13
2023-01-22T00:22:11.577Z,14.23
2023-01-22T00:24:40.091Z,14.63
2023-01-22T00:27:06.805Z,13.80
2023-01-22T00:29:33.405Z,14.02
2023-01-22T00:32:00.120Z,16.13
2023-01-22T00:34:26.882Z,17.23
2023-01-22T00:36:55.221Z,17.73
2023-01-22T00:39:22.614Z,16.02
2023-01-22T00:41:49.923Z,15.63
2023-01-22T00:44:16.891Z,16.65
2023-01-22T00:46:43.729Z,16.23
2023-01-22T00:49:10.381Z,15.23
2023-01-22T00:51:39.479Z,19.30
2023-01-22T00:54:06.455Z,15.88
2023-01-22T00:56:33.142Z,18.85
2023-01-22T00:58:59.781Z,16.67
2023-01-22T01:01:26.473Z,13.45
2023-01-22T01:03:53.100Z,15.55
2023-01-22T01:06:21.540Z,17.98
2023-01-22T01:08:49.598Z,17.95
2023-01-22T01:11:25.294Z,17.02
2023-01-22T01:13:53.293Z,15.60
2023-01-22T01:16:23.752Z,15.02
2023-01-22T01:18:50.680Z,15.35
2023-01-22T01:21:19.191Z,16.95
2023-01-22T01:23:46.619Z,15.60
2023-01-22T01:26:15.352Z,16.50
2023-01-22T01:28:43.392Z,14.18
2023-01-22T01:31:12.676Z,13.23
2023-01-22T01:33:40.095Z,15.73
2023-01-22T01:36:12.816Z,15.05
2023-01-22T01:41:06.984Z,12.02
2023-01-22T01:43:34.551Z,13.05
2023-01-22T01:46:04.628Z,12.82
2023-01-22T01:48:33.761Z,14.15
2023-01-22T01:51:10.118Z,14.80
2023-01-22T01:53:38.209Z,14.25
2023-01-22T01:56:11.017Z,12.55
2023-01-22T01:58:39.738Z,13.60
2023-01-22T02:01:11.974Z,13.35
2023-01-22T02:03:39.942Z,13.23
2023-01-22T02:06:11.252Z,13.50
2023-01-22T02:08:38.942Z,13.63
2023-01-22T02:11:05.804Z,15.57
2023-01-22T02:13:35.569Z,15.65
2023-01-22T02:16:02.355Z,17.55
2023-01-22T02:18:28.986Z,10.70
2023-01-22T02:21:00.592Z,11.85
2023-01-22T02:23:28.424Z,16.05
2023-01-22T02:25:55.834Z,16.02
2023-01-22T02:28:23.146Z,16.05
2023-01-22T02:30:50.056Z,14.80
2023-01-22T02:33:17.208Z,13.10
2023-01-22T02:35:44.229Z,12.02
2023-01-22T02:38:11.165Z,12.40
2023-01-22T02:40:49.285Z,14.30
2023-01-22T02:43:16.799Z,13.10
2023-01-22T02:45:43.648Z,19.70
2023-01-22T02:48:10.440Z,19.20
2023-01-22T02:50:37.242Z,18.52
2023-01-22T02:53:03.973Z,12.07
2023-01-22T02:55:30.831Z,20.08
2023-01-22T02:57:57.533Z,12.68
2023-01-22T03:00:24.304Z,12.93
2023-01-22T03:02:50.897Z,17.02
2023-01-22T03:05:17.517Z,12.98
2023-01-22T03:07:44.913Z,20.77
2023-01-22T03:10:14.855Z,17.25
2023-01-22T03:13:00.153Z,13.25
2023-01-22T03:15:45.350Z,17.58
2023-01-22T03:18:31.761Z,14.05
2023-01-22T03:21:15.630Z,16.55
2023-01-22T03:23:47.551Z,12.13
2023-01-22T03:26:14.810Z,16.52
2023-01-22T03:28:41.815Z,14.68
2023-01-22T03:31:09.284Z,30.02
2023-01-22T03:33:35.995Z,22.10
2023-01-22T03:36:05.348Z,13.68
2023-01-22T03:38:32.335Z,14.65
2023-01-22T03:41:08.320Z,12.55
2023-01-22T03:43:35.444Z,16.38
2023-01-22T03:46:04.914Z,13.55
2023-01-22T03:48:32.099Z,15.40
2023-01-22T03:51:14.196Z,17.02
2023-01-22T03:53:42.092Z,15.98
2023-01-22T03:56:12.034Z,15.75
2023-01-22T03:58:39.058Z,13.70
2023-01-22T04:01:08.443Z,16.52
2023-01-22T04:03:35.649Z,18.08
2023-01-22T04:06:03.435Z,13.25
2023-01-22T04:08:31.768Z,11.68
2023-01-22T04:10:59.461Z,15.55
2023-01-22T04:13:28.017Z,15.52
2023-01-22T04:15:54.729Z,13.30
2023-01-22T04:18:21.394Z,14.50
2023-01-22T04:20:48.915Z,20.77
2023-01-22T04:23:16.635Z,17.20
2023-01-22T04:25:44.185Z,18.38
2023-01-22T04:28:11.388Z,19.83
2023-01-22T04:30:38.983Z,19.00
2023-01-22T04:33:05.804Z,16.40
2023-01-22T04:35:32.577Z,23.10
2023-01-22T04:37:59.371Z,15.45
2023-01-22T04:40:26.459Z,14.80
2023-01-22T04:42:53.163Z,10.20
2023-01-22T04:45:20.435Z,16.95
2023-01-22T04:47:48.555Z,14.27
2023-01-22T04:50:20.888Z,16.70
2023-01-22T04:52:47.690Z,14.30
2023-01-22T04:55:14.341Z,21.50
2023-01-22T04:57:41.003Z,18.02
2023-01-22T05:00:10.257Z,16.40
2023-01-22T05:02:37.894Z,21.15
2023-01-22T05:05:06.133Z,15.80
2023-01-22T05:07:32.859Z,16.75
2023-01-22T05:09:59.612Z,14.50
2023-01-22T05:12:26.729Z,13.75
2023-01-22T05:14:53.379Z,16.17
2023-01-22T05:17:20.952Z,14.95
2023-01-22T05:19:47.667Z,17.23
2023-01-22T05:22:14.324Z,17.40
2023-01-22T05:24:41.132Z,16.42
2023-01-22T05:27:07.754Z,19.75
2023-01-22T05:29:34.344Z,18.60
2023-01-22T05:32:00.993Z,14.98
2023-01-22T05:34:27.730Z,16.10
2023-01-22T05:36:54.514Z,16.48
2023-01-22T05:39:23.886Z,16.90
2023-01-22T05:41:50.844Z,15.80
2023-01-22T05:44:17.688Z,19.05
2023-01-22T05:46:45.589Z,15.35
2023-01-22T05:49:12.292Z,16.83
2023-01-22T05:51:39.026Z,15.52
2023-01-22T05:54:05.668Z,16.63
2023-01-22T05:56:32.350Z,15.60
2023-01-22T05:58:59.011Z,16.08
2023-01-22T06:01:25.673Z,13.82
2023-01-22T06:03:53.294Z,15.45
2023-01-22T06:06:20.112Z,16.08
2023-01-22T06:08:47.912Z,18.02
2023-01-22T06:11:17.084Z,16.73
2023-01-22T06:13:44.074Z,12.85
2023-01-22T06:16:12.441Z,14.60
2023-01-22T06:18:41.359Z,19.25
2023-01-22T06:21:08.922Z,15.95
2023-01-22T06:23:35.931Z,14.57
2023-01-22T06:26:04.053Z,16.88
2023-01-22T06:28:31.476Z,14.32
2023-01-22T06:31:05.364Z,15.68
2023-01-22T06:33:36.333Z,16.35
2023-01-22T06:36:03.270Z,16.15
2023-01-22T06:38:30.320Z,13.63
2023-01-22T06:40:58.845Z,14.93
2023-01-22T06:43:27.001Z,15.45
2023-01-22T06:45:54.466Z,14.93
2023-01-22T06:48:21.386Z,12.55
2023-01-22T06:50:48.143Z,13.35
2023-01-22T06:53:14.885Z,12.10
2023-01-22T06:55:41.510Z,13.02
2023-01-22T06:58:08.107Z,13.80
2023-01-22T07:00:34.757Z,14.15
2023-01-22T07:03:05.825Z,15.75
2023-01-22T07:05:32.522Z,14.10
2023-01-22T07:07:59.158Z,14.15
2023-01-22T07:10:25.838Z,17.60
2023-01-22T07:12:58.907Z,19.02
2023-01-22T07:15:26.580Z,15.32
2023-01-22T07:17:54.550Z,15.45
2023-01-22T07:20:23.277Z,14.52
2023-01-22T07:22:50.957Z,16.05
2023-01-22T07:25:18.782Z,12.35
2023-01-22T07:27:48.306Z,12.68
2023-01-22T07:30:15.077Z,14.05
2023-01-22T07:32:41.823Z,15.18
2023-01-22T07:35:08.686Z,12.57
2023-01-22T07:37:36.393Z,12.82
2023-01-22T07:40:03.411Z,14.20
2023-01-22T07:42:32.913Z,12.07
2023-01-22T07:44:59.549Z,20.48
2023-01-22T07:47:26.343Z,20.50
2023-01-22T07:49:53.021Z,15.98
2023-01-22T07:52:19.692Z,14.90
2023-01-22T07:54:46.375Z,17.50
2023-01-22T07:57:15.568Z,13.57
2023-01-22T07:59:42.786Z,15.85
2023-01-22T08:02:16.265Z,13.73
2023-01-22T08:04:43.408Z,18.83
2023-01-22T08:07:15.902Z,16.38
2023-01-22T08:09:42.592Z,14.18
2023-01-22T08:12:12.112Z,16.60
2023-01-22T08:14:38.839Z,16.08
2023-01-22T08:17:05.589Z,15.65
2023-01-22T08:19:32.726Z,12.50
2023-01-22T08:21:59.345Z,14.77
2023-01-22T08:24:26.032Z,12.18
2023-01-22T08:26:52.858Z,15.25
2023-01-22T08:29:19.667Z,10.93
2023-01-22T08:31:46.357Z,12.88
2023-01-22T08:34:13.448Z,12.60
2023-01-22T08:36:40.112Z,14.02
2023-01-22T08:39:06.872Z,11.32
2023-01-22T08:41:33.607Z,15.45
2023-01-22T08:44:00.310Z,15.73
2023-01-22T08:46:26.930Z,17.33
2023-01-22T08:48:53.694Z,16.42
2023-01-22T08:51:22.687Z,12.25
2023-01-22T08:53:49.662Z,14.85
2023-01-22T08:56:16.277Z,19.88
2023-01-22T08:58:43.317Z,13.57
2023-01-22T09:01:18.163Z,16.20
2023-01-22T09:03:45.049Z,13.68
2023-01-22T09:06:12.178Z,14.75
2023-01-22T09:08:39.022Z,12.15
2023-01-22T09:11:06.244Z,14.52
2023-01-22T09:13:32.918Z,14.82
2023-01-22T09:15:59.897Z,15.35
2023-01-22T09:18:26.966Z,13.25
2023-01-22T09:20:53.608Z,12.80
2023-01-22T09:23:22.278Z,16.67
2023-01-22T09:25:49.160Z,14.07
2023-01-22T09:28:15.885Z,15.80
2023-01-22T09:30:42.863Z,15.65
2023-01-22T09:33:10.012Z,13.70
2023-01-22T09:35:36.619Z,13.60
2023-01-22T09:38:05.642Z,8.82
2023-01-22T09:40:42.447Z,10.63
2023-01-22T09:43:34.024Z,10.60
2023-01-22T09:46:19.992Z,12.15
2023-01-22T09:48:51.350Z,8.57
2023-01-22T09:51:19.620Z,10.07
2023-01-22T09:53:53.681Z,10.80
2023-01-22T09:56:23.333Z,10.23
2023-01-22T09:58:51.916Z,11.85
2023-01-22T10:01:20.081Z,9.43
2023-01-22T10:03:51.917Z,9.15
2023-01-22T10:06:23.938Z,9.48
2023-01-22T10:09:09.401Z,11.60
2023-01-22T10:11:37.921Z,10.40
2023-01-22T10:14:09.427Z,12.38
2023-01-22T10:16:37.401Z,10.57
2023-01-22T10:19:07.611Z,9.95
2023-01-22T10:21:43.327Z,10.10
2023-01-22T10:24:11.087Z,9.80
2023-01-22T10:26:38.956Z,7.07
2023-01-22T10:29:24.459Z,9.75
2023-01-22T10:31:55.193Z,8.35
2023-01-22T10:34:32.923Z,8.68
2023-01-22T10:37:09.792Z,9.98
2023-01-22T10:39:47.640Z,8.75
2023-01-22T10:42:19.088Z,8.10
2023-01-22T10:44:46.812Z,9.45
2023-01-22T10:47:22.266Z,7.97
2023-01-22T10:50:02.831Z,10.50
2023-01-22T10:52:41.802Z,9.00
2023-01-22T10:55:21.638Z,8.15
2023-01-22T10:58:14.733Z,9.93
2023-01-22T11:00:51.985Z,11.05
2023-01-22T11:03:30.317Z,9.93
2023-01-22T11:06:01.703Z,7.95
2023-01-22T11:08:35.903Z,6.97
2023-01-22T11:11:07.668Z,6.95
2023-01-22T11:13:50.622Z,5.80
2023-01-22T11:16:22.717Z,9.23
2023-01-22T11:18:57.595Z,6.03
2023-01-22T11:21:32.284Z,8.80
2023-01-22T11:24:05.014Z,7.50
2023-01-22T11:27:22.947Z,7.22
2023-01-22T11:30:21.226Z,6.63
2023-01-22T11:33:06.072Z,6.97
2023-01-22T11:35:58.652Z,10.50
2023-01-22T11:38:36.673Z,12.95
2023-01-22T11:41:30.439Z,13.57
2023-01-22T11:44:19.713Z,9.68
2023-01-22T11:47:04.971Z,7.95
2023-01-22T11:52:35.266Z,5.43
2023-01-22T11:55:23.815Z,9.85
2023-01-22T11:58:09.218Z,7.18
2023-01-22T12:00:53.119Z,15.23
2023-01-22T12:03:32.710Z,11.15
2023-01-22T12:06:12.969Z,9.52
2023-01-22T12:09:03.100Z,9.93
2023-01-22T12:11:35.604Z,12.57
2023-01-22T12:17:01.754Z,7.78
2023-01-22T12:19:56.172Z,10.00
2023-01-22T12:22:42.012Z,7.93
2023-01-22T12:25:20.848Z,9.30
2023-01-22T12:30:30.191Z,12.13
2023-01-22T12:33:01.841Z,7.22
2023-01-22T12:37:56.876Z,6.93
2023-01-22T12:40:59.272Z,8.95
2023-01-22T12:43:51.005Z,8.88
2023-01-22T12:46:30.920Z,7.38
2023-01-22T12:49:00.293Z,6.32
2023-01-22T12:51:37.483Z,5.60
2023-01-22T12:54:16.403Z,6.13
2023-01-22T12:56:42.975Z,6.65
2023-01-22T12:59:33.345Z,6.57
2023-01-22T13:02:02.838Z,6.00
2023-01-22T13:04:31.258Z,5.63
2023-01-22T13:07:25.862Z,9.73
2023-01-22T13:10:24.236Z,4.68
2023-01-22T13:12:54.924Z,4.65
2023-01-22T13:15:32.173Z,8.35
2023-01-22T13:18:07.309Z,5.75
2023-01-22T13:20:56.413Z,6.35
2023-01-22T13:23:23.777Z,6.63
2023-01-22T13:25:55.111Z,8.27
2023-01-22T13:28:23.236Z,4.35
2023-01-22T13:31:16.833Z,4.53
2023-01-22T13:33:54.673Z,3.38
2023-01-22T13:36:21.769Z,4.18
2023-01-22T13:38:56.761Z,5.32
2023-01-22T13:41:30.719Z,11.65
2023-01-22T13:43:57.631Z,7.38
2023-01-22T13:46:24.816Z,6.57
2023-01-22T13:49:31.485Z,5.97
2023-01-22T13:52:03.823Z,6.05
2023-01-22T13:54:42.809Z,4.18
2023-01-22T13:57:14.620Z,5.30
2023-01-22T13:59:55.841Z,4.00
2023-01-22T14:02:30.581Z,4.30
2023-01-22T14:04:57.939Z,3.80
2023-01-22T14:07:29.983Z,3.00
2023-01-22T14:09:58.242Z,3.38
2023-01-22T14:12:26.968Z,3.00
2023-01-22T14:14:54.945Z,4.03
2023-01-22T14:17:35.854Z,3.78
2023-01-22T14:20:04.405Z,5.07
2023-01-22T14:22:31.051Z,4.30
2023-01-22T14:24:57.850Z,3.17
2023-01-22T14:27:29.803Z,4.53
2023-01-22T14:29:56.443Z,3.03
2023-01-22T14:32:23.867Z,4.22
2023-01-22T14:34:50.521Z,4.18
2023-01-22T14:37:19.030Z,4.35
2023-01-22T14:39:45.724Z,3.80
2023-01-22T14:42:12.565Z,3.42
2023-01-22T14:44:39.246Z,3.25
2023-01-22T14:47:06.019Z,2.72
2023-01-22T14:49:32.823Z,5.00
2023-01-22T14:51:59.450Z,4.20
2023-01-22T14:54:26.084Z,3.85
2023-01-22T14:56:52.882Z,3.30
2023-01-22T14:59:20.875Z,3.63
2023-01-22T15:01:47.843Z,3.30
2023-01-22T15:04:14.627Z,4.88
2023-01-22T15:06:41.289Z,2.97
2023-01-22T15:09:07.880Z,5.25
2023-01-22T15:11:34.512Z,4.03
2023-01-22T15:14:01.100Z,5.78
2023-01-22T15:16:27.837Z,4.50
2023-01-22T15:18:56.012Z,3.17
2023-01-22T15:21:23.435Z,3.78
2023-01-22T15:23:50.285Z,2.67
2023-01-22T15:26:28.871Z,2.30
2023-01-22T15:28:55.573Z,3.35
2023-01-22T15:31:22.259Z,2.40
2023-01-22T15:33:49.108Z,1.95
2023-01-22T15:36:15.787Z,5.63
2023-01-22T15:38:42.611Z,3.33
2023-01-22T15:41:23.837Z,5.40
2023-01-22T15:43:51.487Z,4.43
2023-01-22T15:46:23.434Z,3.22
2023-01-22T15:48:50.661Z,6.07
2023-01-22T15:51:17.989Z,13.30
2023-01-22T15:53:51.185Z,7.55
2023-01-22T15:56:19.271Z,24.17
2023-01-22T15:58:46.052Z,12.00
2023-01-22T16:01:12.705Z,2.70
2023-01-22T16:03:39.384Z,4.90
2023-01-22T16:06:13.706Z,5.53
2023-01-22T16:08:41.496Z,5.40
2023-01-22T16:11:08.327Z,5.10
2023-01-22T16:13:35.813Z,4.40
2023-01-22T16:16:06.451Z,3.30
2023-01-22T16:18:34.662Z,9.55
2023-01-22T16:21:05.322Z,7.78
2023-01-22T16:23:32.922Z,5.45
2023-01-22T16:26:01.177Z,3.60
2023-01-22T16:28:27.938Z,5.10
2023-01-22T16:30:54.670Z,3.38
2023-01-22T16:33:28.538Z,3.60
2023-01-22T16:36:03.877Z,3.20
2023-01-22T16:38:31.543Z,3.45
2023-01-22T16:41:28.068Z,4.22
2023-01-22T16:44:07.039Z,4.10
2023-01-22T16:46:35.155Z,5.38
2023-01-22T16:49:04.647Z,13.80
2023-01-22T16:51:40.458Z,12.38
2023-01-22T16:54:07.697Z,15.23
2023-01-22T16:56:35.338Z,5.40
2023-01-22T16:59:02.493Z,6.85
2023-01-22T17:01:30.413Z,5.82
2023-01-22T17:03:57.086Z,5.85
2023-01-22T17:06:37.700Z,4.25
2023-01-22T17:09:04.394Z,7.65
2023-01-22T17:11:30.984Z,5.15
2023-01-22T17:13:59.692Z,11.43
2023-01-22T17:16:26.375Z,14.35
2023-01-22T17:18:54.902Z,6.63
2023-01-22T17:21:21.772Z,4.57
2023-01-22T17:23:48.494Z,6.75
2023-01-22T17:26:16.257Z,8.57
2023-01-22T17:28:43.537Z,4.60
2023-01-22T17:31:15.537Z,5.75
2023-01-22T17:33:42.806Z,4.72
2023-01-22T17:36:12.119Z,5.38
2023-01-22T17:38:39.099Z,6.65
2023-01-22T17:41:14.994Z,7.78
2023-01-22T17:43:43.667Z,5.05
2023-01-22T17:46:15.614Z,6.40
2023-01-22T17:48:43.337Z,4.35
2023-01-22T17:51:13.157Z,7.95
2023-01-22T17:53:43.558Z,7.78
2023-01-22T17:56:19.140Z,4.90
2023-01-22T17:58:50.321Z,11.60
2023-01-22T18:01:19.495Z,8.63
2023-01-22T18:03:47.393Z,6.32
2023-01-22T18:06:14.736Z,8.07
2023-01-22T18:08:42.480Z,6.78
2023-01-22T18:11:16.555Z,10.55
2023-01-22T18:13:44.010Z,5.82
2023-01-22T18:16:13.916Z,10.27
2023-01-22T18:18:41.466Z,6.57
2023-01-22T18:21:13.249Z,5.90
2023-01-22T18:23:40.317Z,8.13
2023-01-22T18:26:08.025Z,9.27
2023-01-22T18:28:35.501Z,10.15
2023-01-22T18:31:14.060Z,14.68
2023-01-22T18:33:42.288Z,6.55
2023-01-22T18:36:12.884Z,9.98
2023-01-22T18:38:43.127Z,7.95
2023-01-22T18:41:15.531Z,9.88
2023-01-22T18:43:42.560Z,10.40
2023-01-22T18:46:12.004Z,6.22
2023-01-22T18:48:39.988Z,8.93
2023-01-22T18:51:09.058Z,9.57
2023-01-22T18:53:36.726Z,6.65
2023-01-22T18:56:06.115Z,7.22
2023-01-22T18:58:35.598Z,8.07
2023-01-22T19:01:17.148Z,6.95
2023-01-22T19:03:47.528Z,8.93
2023-01-22T19:06:16.768Z,9.38
2023-01-22T19:08:45.586Z,14.70
2023-01-22T19:11:13.615Z,14.95
2023-01-22T19:13:41.945Z,7.15
2023-01-22T19:16:12.396Z,14.85
2023-01-22T19:18:42.346Z,12.50
2023-01-22T19:21:12.968Z,8.25
2023-01-22T19:23:41.053Z,8.00
2023-01-22T19:26:22.937Z,13.75
2023-01-22T19:28:52.601Z,9.15
2023-01-22T19:31:24.479Z,6.82
2023-01-22T19:33:53.244Z,8.95
2023-01-22T19:36:22.740Z,7.90
2023-01-22T19:38:50.062Z,7.35
2023-01-22T19:41:16.949Z,6.90
2023-01-22T19:43:43.701Z,12.05
2023-01-22T19:46:13.114Z,7.88
2023-01-22T19:48:40.917Z,7.32
2023-01-22T19:51:12.918Z,7.10
2023-01-22T19:53:40.782Z,7.43
2023-01-22T19:56:22.669Z,7.50
2023-01-22T19:58:50.697Z,7.43
2023-01-22T20:01:18.160Z,7.50
2023-01-22T20:03:45.116Z,8.20
2023-01-22T20:06:13.523Z,8.35
2023-01-22T20:08:40.772Z,7.05
2023-01-22T20:11:09.285Z,8.02
2023-01-22T20:13:36.620Z,7.13
2023-01-22T20:16:04.686Z,6.57
2023-01-22T20:18:31.568Z,9.15
2023-01-22T20:21:00.727Z,8.07
2023-01-22T20:23:29.040Z,8.32
2023-01-22T20:25:56.674Z,8.02
2023-01-22T20:28:23.465Z,8.10
2023-01-22T20:31:01.813Z,12.18
2023-01-22T20:33:28.770Z,11.40
2023-01-22T20:36:00.212Z,10.43
2023-01-22T20:38:28.009Z,12.75
2023-01-22T20:40:55.182Z,12.45
2023-01-22T20:43:21.912Z,10.52
2023-01-22T20:46:03.545Z,8.40
2023-01-22T20:48:32.370Z,9.05
2023-01-22T20:50:59.458Z,9.13
2023-01-22T20:53:27.420Z,8.18
2023-01-22T20:56:06.687Z,6.28
2023-01-22T20:58:34.070Z,8.13
2023-01-22T21:01:10.494Z,7.63
2023-01-22T21:03:37.277Z,9.07
2023-01-22T21:06:05.697Z,9.65
2023-01-22T21:08:32.558Z,9.10
2023-01-22T21:11:01.774Z,8.13
2023-01-22T21:13:28.873Z,8.77
2023-01-22T21:15:55.650Z,8.43
2023-01-22T21:18:23.561Z,8.00
2023-01-22T21:20:50.575Z,7.65
2023-01-22T21:23:17.495Z,7.13
2023-01-22T21:25:44.115Z,8.70
2023-01-22T21:28:10.906Z,6.60
2023-01-22T21:30:37.911Z,7.68
2023-01-22T21:33:04.601Z,5.40
2023-01-22T21:35:31.247Z,9.63
2023-01-22T21:37:57.983Z,6.97
2023-01-22T21:40:24.828Z,7.63
2023-01-22T21:43:09.956Z,8.25
2023-01-22T21:46:01.078Z,7.75
2023-01-22T21:48:29.355Z,6.97
2023-01-22T21:50:56.158Z,7.82
2023-01-22T21:53:23.129Z,6.68
2023-01-22T21:55:53.370Z,6.53
2023-01-22T21:58:20.965Z,6.72
2023-01-22T22:00:47.679Z,5.55
2023-01-22T22:03:16.019Z,5.55
2023-01-22T22:05:42.790Z,4.75
2023-01-22T22:08:09.424Z,5.30
2023-01-22T22:10:36.124Z,6.40
2023-01-22T22:13:02.826Z,3.78
2023-01-22T22:15:29.535Z,5.97
2023-01-22T22:17:56.159Z,5.13
2023-01-22T22:20:22.807Z,5.30
2023-01-22T22:22:49.448Z,5.75
2023-01-22T22:25:16.166Z,5.78
2023-01-22T22:27:42.771Z,5.28
2023-01-22T22:30:10.008Z,6.78
2023-01-22T22:32:36.598Z,6.22
2023-01-22T22:35:03.351Z,4.70
2023-01-22T22:37:29.982Z,6.13
2023-01-22T22:39:56.628Z,4.63
2023-01-22T22:42:23.327Z,5.20
2023-01-22T22:44:49.987Z,4.78
2023-01-22T22:47:16.651Z,4.80
2023-01-22T22:49:43.309Z,6.35
2023-01-22T22:52:10.939Z,7.43
2023-01-22T22:54:37.687Z,5.80
2023-01-22T22:57:04.603Z,5.97
2023-01-22T22:59:31.313Z,5.30
2023-01-22T23:01:57.942Z,5.75
2023-01-22T23:04:24.676Z,4.63
2023-01-22T23:06:52.049Z,5.45
2023-01-22T23:09:19.945Z,4.88
2023-01-22T23:11:47.516Z,8.73
2023-01-22T23:14:14.324Z,8.00
2023-01-22T23:16:43.286Z,5.78
2023-01-22T23:19:15.898Z,8.55
2023-01-22T23:21:43.242Z,9.75
2023-01-22T23:24:11.974Z,5.72
2023-01-22T23:26:40.148Z,5.60
2023-01-22T23:29:09.241Z,5.47
2023-01-22T23:31:38.407Z,9.30
2023-01-22T23:34:16.841Z,9.15
2023-01-22T23:36:45.923Z,10.23
2023-01-22T23:39:14.537Z,10.35
2023-01-22T23:41:41.667Z,9.25
2023-01-22T23:44:08.377Z,7.65
2023-01-22T23:46:36.474Z,7.35
2023-01-22T23:49:04.464Z,7.97
2023-01-22T23:51:31.532Z,5.78
2023-01-22T23:53:58.706Z,8.10
2023-01-22T23:56:32.505Z,6.15
2023-01-22T23:58:59.925Z,6.07
